< < Back
Terminal Aerodrome Forecast


Current Version              Previous Versions:   1  2  3  4  5  6  7  8  9  

Terminal Aerodrome Forecast

457
FTUS42 KFFC 071349 AAA
TAFATL
TAF AMD
KATL 071349Z 0714/0818 28007KT P6SM FEW200
     FM071600 27008KT P6SM FEW050
     FM080200 26005KT P6SM FEW150
     FM080900 28002KT P6SM SKC
     FM081600 27006KT P6SM FEW050=

Latest METAR

836
SAUS70 KWBC 071700 RRD
MTRATL
METAR KATL 071652Z VRB04KT 10SM SCT035 30/20 A3018 RMK AO2 SLP210 MDT CU
NE-SE & SW-NW T03000200


USA.gov is the U.S. government's official web portal to all federal, state and local government web resources and services.